Terminal Aerodrome Forecast
Issued by NWS Bismarck, ND

Home | Current Version | Previous Version | Graphics & Text | Print | Product List | Glossary On
Versions: 1 2 3 4 5 6 7 8 9 10 11 12 13 14 15 16 17 18 19 20 21 22 23 24 25 26
174
FTUS43 KBIS 102338
TAFBIS
TAF
KBIS 102338Z 1100/1124 27007KT P6SM BKN150
     FM110500 30013KT P6SM FEW250 WS020/31050KT
     FM110700 30018G27KT P6SM VCSH OVC030 WS020/31050KT
     FM110900 31019G27KT 5SM -SN OVC015 WS020/31050KT
     FM111100 31020G29KT P6SM VCSH OVC020
     FM111800 33016G24KT P6SM OVC020
     FM112000 33015KT P6SM BKN020=

USA.gov is the U.S. government's official web portal to all federal, state and local government web resources and services.